Time;durP1;ratioP1;P1;durP2;ratioP2;P2;SDS_P1;SDS_P2;PMS_P1;PMS_P2;Temp;Humidity;BMP_temperature;BMP_pressure;BME280_temperature;BME280_humidity;BME280_pressure;Samples;Min_cycle;Max_cycle;Signal;HPM_P1;HPM_P2
2024/01/31 00:01:39;;;;;;;12.10;4.50;;;20.60;54.30;;;;;;4988078;28;20114;-65
2024/01/31 00:04:05;;;;;;;10.60;4.65;;;20.60;54.60;;;;;;4986981;28;20041;-65
2024/01/31 00:06:31;;;;;;;10.30;4.47;;;20.60;54.40;;;;;;4987515;28;20023;-65
2024/01/31 00:08:57;;;;;;;10.43;4.57;;;20.60;54.50;;;;;;4988628;28;20057;-64
2024/01/31 00:11:25;;;;;;;9.93;5.22;;;20.60;54.70;;;;;;4988792;28;20058;-65
2024/01/31 00:13:52;;;;;;;7.55;4.47;;;20.60;54.50;;;;;;4989365;28;20038;-65
2024/01/31 00:16:17;;;;;;;8.80;4.60;;;20.60;54.40;;;;;;5028019;28;20105;-64
2024/01/31 00:18:43;;;;;;;8.60;4.25;;;20.60;54.50;;;;;;4986815;28;20142;-65
2024/01/31 00:21:09;;;;;;;8.90;4.38;;;20.60;54.30;;;;;;4988332;28;20489;-64
2024/01/31 00:23:35;;;;;;;10.38;4.40;;;20.60;54.40;;;;;;4988631;28;20065;-63
2024/01/31 00:26:00;;;;;;;9.52;4.28;;;20.60;54.50;;;;;;4987659;28;20031;-64
2024/01/31 00:28:27;;;;;;;10.05;4.63;;;20.60;54.60;;;;;;5044367;28;20495;-64
2024/01/31 00:30:53;;;;;;;8.63;4.32;;;20.60;54.60;;;;;;5043744;28;20035;-64
2024/01/31 00:33:18;;;;;;;7.90;4.43;;;20.60;54.60;;;;;;4993259;28;20026;-64
2024/01/31 00:35:44;;;;;;;8.98;4.07;;;20.60;54.60;;;;;;4986731;28;20022;-64
2024/01/31 00:38:10;;;;;;;16.40;4.38;;;20.60;54.60;;;;;;4987794;28;20066;-63
2024/01/31 00:40:36;;;;;;;9.30;4.45;;;20.60;54.60;;;;;;4986484;28;20044;-64
2024/01/31 00:43:01;;;;;;;10.10;4.40;;;20.60;54.60;;;;;;4986512;28;20037;-64
2024/01/31 00:45:28;;;;;;;10.30;4.15;;;20.60;54.60;;;;;;5007012;28;20024;-64
2024/01/31 00:47:54;;;;;;;8.95;4.20;;;20.60;54.60;;;;;;5045741;28;20028;-64
2024/01/31 00:50:19;;;;;;;8.32;4.22;;;20.60;54.50;;;;;;4999950;28;20134;-64
2024/01/31 00:52:45;;;;;;;7.72;4.35;;;20.60;54.40;;;;;;5013409;28;20034;-64
2024/01/31 00:55:11;;;;;;;11.63;4.88;;;20.70;54.70;;;;;;4986406;28;20041;-63
2024/01/31 00:57:37;;;;;;;10.20;3.97;;;20.60;54.50;;;;;;4987662;28;20034;-64
2024/01/31 01:00:05;;;;;;;7.70;3.88;;;20.60;54.60;;;;;;4987459;28;20085;-64
2024/01/31 01:02:31;;;;;;;10.93;4.10;;;20.60;54.70;;;;;;5017108;28;20336;-64
2024/01/31 01:04:57;;;;;;;7.72;3.72;;;20.60;54.50;;;;;;4986287;28;20018;-64
2024/01/31 01:07:23;;;;;;;7.45;3.75;;;20.70;54.50;;;;;;5011528;28;20523;-64
2024/01/31 01:09:49;;;;;;;9.52;4.35;;;20.70;54.60;;;;;;4986876;28;20030;-62
2024/01/31 01:12:15;;;;;;;6.40;3.53;;;20.70;54.60;;;;;;5014860;28;20469;-64
2024/01/31 01:14:41;;;;;;;8.77;4.00;;;20.60;54.60;;;;;;4995144;28;20054;-64
2024/01/31 01:17:06;;;;;;;6.72;3.95;;;20.70;54.70;;;;;;5070087;28;20030;-63
2024/01/31 01:19:32;;;;;;;6.50;3.58;;;20.60;54.60;;;;;;4987470;28;20029;-63
2024/01/31 01:22:00;;;;;;;7.03;3.83;;;20.70;54.70;;;;;;4985393;28;20035;-63
2024/01/31 01:24:26;;;;;;;6.22;3.05;;;20.70;54.70;;;;;;4996789;28;20055;-64
2024/01/31 01:26:52;;;;;;;8.32;4.03;;;20.60;54.60;;;;;;5007096;28;20034;-64
2024/01/31 01:29:17;;;;;;;8.88;4.10;;;20.60;54.60;;;;;;5007597;28;20041;-64
2024/01/31 01:31:43;;;;;;;9.05;3.78;;;20.70;55.00;;;;;;4993443;28;20026;-64
2024/01/31 01:34:11;;;;;;;8.55;3.75;;;20.60;54.70;;;;;;4987663;28;20033;-63
2024/01/31 01:36:37;;;;;;;10.85;3.97;;;20.60;54.80;;;;;;4987708;28;20038;-63
2024/01/31 01:39:03;;;;;;;6.47;3.58;;;20.60;54.70;;;;;;4990429;28;20053;-64
2024/01/31 01:41:29;;;;;;;8.27;3.67;;;20.60;54.80;;;;;;4986947;28;20026;-63
2024/01/31 01:43:55;;;;;;;5.43;3.53;;;20.70;54.50;;;;;;5001624;22;20062;-56
2024/01/31 01:46:21;;;;;;;8.38;3.53;;;20.70;54.90;;;;;;5002525;28;20035;-55
2024/01/31 01:48:49;;;;;;;11.27;3.60;;;20.70;54.90;;;;;;5016573;28;20505;-50
2024/01/31 01:51:17;;;;;;;6.07;3.70;;;20.60;55.00;;;;;;5036893;28;20036;-55
2024/01/31 01:53:44;;;;;;;8.85;3.65;;;20.60;54.90;;;;;;5010030;28;20433;-53
2024/01/31 01:56:12;;;;;;;5.13;3.28;;;20.60;54.90;;;;;;4986877;28;20094;-55
2024/01/31 01:58:38;;;;;;;9.65;3.45;;;20.60;55.00;;;;;;5001148;28;20428;-55
2024/01/31 02:01:04;;;;;;;8.65;2.97;;;20.60;54.80;;;;;;4969648;28;20034;-50
2024/01/31 02:03:30;;;;;;;6.55;3.30;;;20.60;54.80;;;;;;4969400;28;20062;-51
2024/01/31 02:06:00;;;;;;;5.93;3.08;;;20.60;54.80;;;;;;5013155;28;20105;-55
2024/01/31 02:08:26;;;;;;;;;;;20.70;54.70;;;;;;5004680;28;20027;-55
2024/01/31 02:10:52;;;;;;;5.22;2.92;;;20.60;54.60;;;;;;4975743;28;19963;-51
2024/01/31 02:13:18;;;;;;;6.88;2.88;;;20.70;54.50;;;;;;5032528;28;20040;-48
2024/01/31 02:15:53;;;;;;;7.22;3.10;;;20.60;54.70;;;;;;5001578;28;20080;-52
2024/01/31 02:18:21;;;;;;;6.18;3.38;;;20.60;54.50;;;;;;5015299;28;20118;-55
2024/01/31 02:20:47;;;;;;;6.82;3.10;;;20.60;54.50;;;;;;5016656;28;20025;-55
2024/01/31 02:23:14;;;;;;;7.60;2.90;;;20.60;54.70;;;;;;5023069;28;20090;-53
2024/01/31 02:25:39;;;;;;;5.55;3.15;;;20.60;54.80;;;;;;5013962;28;20431;-53
2024/01/31 02:28:05;;;;;;;9.15;3.05;;;20.60;54.70;;;;;;5015841;28;20113;-52
2024/01/31 02:30:31;;;;;;;5.35;2.88;;;20.60;54.90;;;;;;4977603;28;20034;-54
2024/01/31 02:32:57;;;;;;;5.45;2.88;;;20.60;54.80;;;;;;4968992;28;20073;-56
2024/01/31 02:35:24;;;;;;;7.85;3.13;;;20.60;54.80;;;;;;5010758;28;20020;-55
2024/01/31 02:37:50;;;;;;;7.72;3.05;;;20.60;54.80;;;;;;5029499;28;20515;-52
2024/01/31 02:40:16;;;;;;;6.18;3.33;;;20.60;54.90;;;;;;5019161;28;20060;-56
2024/01/31 02:42:43;;;;;;;4.80;2.90;;;20.60;55.10;;;;;;5019633;28;20022;-54
2024/01/31 02:45:09;;;;;;;5.65;2.78;;;20.60;55.40;;;;;;5024317;28;20022;-55
2024/01/31 02:47:35;;;;;;;4.38;2.40;;;20.60;55.10;;;;;;5032304;28;20036;-51
2024/01/31 02:50:05;;;;;;;5.95;2.97;;;20.60;55.50;;;;;;5025651;28;20028;-53
2024/01/31 02:52:31;;;;;;;4.65;2.88;;;20.60;54.90;;;;;;5014474;28;20080;-53
2024/01/31 02:54:58;;;;;;;7.65;2.95;;;20.60;55.00;;;;;;5006060;28;20035;-51
2024/01/31 02:57:24;;;;;;;6.00;2.83;;;20.60;55.10;;;;;;5008731;28;20026;-47
2024/01/31 02:59:50;;;;;;;6.15;2.80;;;20.60;55.00;;;;;;5011273;28;20034;-49
2024/01/31 03:02:17;;;;;;;4.63;2.63;;;20.60;55.00;;;;;;5009633;28;20395;-53
2024/01/31 03:04:43;;;;;;;6.32;2.80;;;20.60;54.90;;;;;;5018520;28;20569;-48
2024/01/31 03:07:10;;;;;;;4.20;2.60;;;20.60;55.10;;;;;;5020054;28;20049;-48
2024/01/31 03:09:37;;;;;;;6.65;3.10;;;20.60;54.90;;;;;;5000403;28;20034;-48
2024/01/31 03:12:04;;;;;;;6.05;2.80;;;20.60;54.80;;;;;;5017228;28;20033;-55
2024/01/31 03:14:33;;;;;;;4.57;2.55;;;20.60;54.90;;;;;;5074079;28;20021;-53
2024/01/31 03:17:00;;;;;;;3.92;2.45;;;20.60;54.80;;;;;;5018974;28;20553;-56
2024/01/31 03:19:28;;;;;;;6.35;2.60;;;20.60;55.20;;;;;;5074153;28;20399;-54
2024/01/31 03:21:54;;;;;;;4.15;2.30;;;20.60;54.70;;;;;;5027684;28;20390;-54
2024/01/31 03:24:21;;;;;;;4.72;2.63;;;20.60;54.70;;;;;;5051911;28;20060;-54
2024/01/31 03:26:47;;;;;;;3.95;2.33;;;20.60;55.40;;;;;;5029609;28;20046;-49
2024/01/31 03:29:13;;;;;;;3.78;2.10;;;20.60;54.80;;;;;;5023369;28;20546;-55
2024/01/31 03:31:39;;;;;;;5.07;2.33;;;20.60;54.70;;;;;;5030593;28;20116;-56
2024/01/31 03:34:07;;;;;;;4.50;2.30;;;20.60;55.30;;;;;;5031488;28;20024;-53
2024/01/31 03:36:33;;;;;;;4.03;2.40;;;20.60;54.90;;;;;;5042441;28;20114;-54
2024/01/31 03:38:59;;;;;;;3.47;2.40;;;20.60;55.30;;;;;;5024019;28;20377;-54
2024/01/31 03:41:26;;;;;;;4.22;2.30;;;20.60;54.90;;;;;;5014170;28;20034;-51
2024/01/31 03:43:52;;;;;;;7.47;2.63;;;20.60;55.00;;;;;;5035031;28;20045;-48
2024/01/31 03:46:18;;;;;;;4.15;2.45;;;20.60;55.10;;;;;;5045146;28;20060;-50
2024/01/31 03:48:44;;;;;;;4.70;2.30;;;20.60;55.30;;;;;;5013969;28;20544;-52
2024/01/31 03:51:20;;;;;;;3.03;1.92;;;20.60;55.10;;;;;;5020127;28;20080;-49
2024/01/31 03:53:46;;;;;;;3.33;1.95;;;20.60;55.20;;;;;;5037739;28;20492;-46
2024/01/31 03:56:12;;;;;;;3.63;2.05;;;20.60;55.30;;;;;;4994650;28;20030;-51
2024/01/31 03:58:39;;;;;;;5.53;2.20;;;20.60;55.50;;;;;;5036821;28;20103;-48
2024/01/31 04:01:05;;;;;;;3.78;2.10;;;20.60;55.20;;;;;;5032920;28;20078;-48
2024/01/31 04:03:30;;;;;;;4.70;2.45;;;20.60;55.10;;;;;;5020084;28;20280;-47
2024/01/31 04:05:56;;;;;;;4.35;2.40;;;20.60;55.50;;;;;;5022116;28;20018;-48
2024/01/31 04:08:22;;;;;;;4.18;2.10;;;20.60;55.40;;;;;;5030033;28;20425;-49
2024/01/31 04:10:48;;;;;;;3.28;2.00;;;20.60;55.20;;;;;;5039129;28;20458;-49
2024/01/31 04:13:14;;;;;;;4.90;2.20;;;20.60;55.00;;;;;;5029342;28;20064;-48
2024/01/31 04:15:39;;;;;;;5.55;2.40;;;20.60;55.30;;;;;;5034051;28;20407;-46
2024/01/31 04:18:07;;;;;;;5.82;2.10;;;20.60;55.10;;;;;;5029782;28;20491;-49
2024/01/31 04:20:38;;;;;;;5.25;2.50;;;20.60;55.50;;;;;;5015674;28;20601;-48
2024/01/31 04:23:04;;;;;;;3.10;2.17;;;20.60;55.40;;;;;;5012733;28;20402;-47
2024/01/31 04:25:30;;;;;;;3.63;2.20;;;20.60;55.20;;;;;;5030213;28;20020;-53
2024/01/31 04:27:56;;;;;;;2.70;2.10;;;20.60;55.20;;;;;;4992114;28;20023;-49
2024/01/31 04:30:22;;;;;;;3.15;2.10;;;20.60;55.20;;;;;;4970593;28;20019;-47
2024/01/31 04:32:47;;;;;;;4.45;2.35;;;20.60;54.60;;;;;;4970819;28;20027;-53
2024/01/31 04:35:13;;;;;;;2.92;1.67;;;20.60;54.70;;;;;;5029242;28;20038;-47
2024/01/31 04:37:39;;;;;;;3.30;2.10;;;20.60;54.50;;;;;;5037010;28;20493;-50
2024/01/31 04:40:05;;;;;;;2.75;1.83;;;20.60;54.50;;;;;;5023460;28;20515;-52
2024/01/31 04:42:31;;;;;;;4.18;1.92;;;20.60;54.80;;;;;;5016938;28;20043;-48
2024/01/31 04:44:57;;;;;;;3.42;1.90;;;20.60;55.10;;;;;;5000010;28;20183;-49
2024/01/31 04:47:25;;;;;;;3.75;2.00;;;20.60;54.80;;;;;;5034436;28;20523;-50
2024/01/31 04:49:58;;;;;;;3.95;2.22;;;20.60;54.70;;;;;;5000372;28;20023;-48
2024/01/31 04:52:25;;;;;;;3.28;1.90;;;20.60;54.90;;;;;;5034637;28;20097;-49
2024/01/31 04:54:51;;;;;;;3.08;2.10;;;20.60;55.00;;;;;;5029968;28;20043;-47
2024/01/31 04:57:17;;;;;;;4.15;2.05;;;20.60;54.80;;;;;;5012369;28;20419;-47
2024/01/31 04:59:43;;;;;;;3.80;2.15;;;20.60;54.80;;;;;;4970167;28;20041;-47
2024/01/31 05:02:09;;;;;;;4.28;2.22;;;20.60;55.50;;;;;;4970004;28;20031;-48
2024/01/31 05:04:39;;;;;;;4.13;2.10;;;20.60;55.00;;;;;;5015287;28;20603;-49
2024/01/31 05:07:05;;;;;;;3.30;2.10;;;20.60;55.20;;;;;;5025264;28;20409;-48
2024/01/31 05:09:32;;;;;;;3.28;2.05;;;20.60;55.30;;;;;;5035246;28;20359;-50
2024/01/31 05:11:57;;;;;;;3.58;2.08;;;20.60;55.50;;;;;;5011880;28;20116;-55
2024/01/31 05:14:23;;;;;;;3.53;1.95;;;20.60;55.50;;;;;;5010564;28;20393;-56
2024/01/31 05:16:50;;;;;;;3.55;2.08;;;20.60;55.70;;;;;;5011814;28;20029;-56
2024/01/31 05:19:16;;;;;;;3.67;2.22;;;20.60;55.50;;;;;;5038735;28;20053;-48
2024/01/31 05:21:49;;;;;;;3.47;1.65;;;20.60;55.80;;;;;;5016975;28;20031;-48
2024/01/31 05:24:16;;;;;;;2.90;1.85;;;20.60;55.70;;;;;;5023116;28;20573;-48
2024/01/31 05:26:48;;;;;;;3.92;2.25;;;20.60;55.00;;;;;;5039141;28;20022;-55
2024/01/31 05:29:14;;;;;;;4.88;1.90;;;20.60;56.10;;;;;;4968037;28;20038;-54
2024/01/31 05:31:40;;;;;;;3.83;2.17;;;20.60;55.10;;;;;;4981946;28;20024;-57
2024/01/31 05:34:07;;;;;;;5.28;2.00;;;20.60;55.50;;;;;;5025013;28;20048;-55
2024/01/31 05:36:32;;;;;;;4.00;2.00;;;20.60;55.80;;;;;;5018398;28;20019;-50
2024/01/31 05:38:58;;;;;;;4.15;2.30;;;20.50;56.50;;;;;;5012144;28;20034;-53
2024/01/31 05:41:24;;;;;;;3.90;2.10;;;20.60;55.70;;;;;;5042297;28;20019;-53
2024/01/31 05:43:50;;;;;;;4.18;2.10;;;20.60;55.60;;;;;;4987321;28;20111;-49
2024/01/31 05:46:17;;;;;;;2.80;2.00;;;20.60;55.20;;;;;;5023079;28;20024;-50
2024/01/31 05:48:45;;;;;;;4.32;1.85;;;20.60;54.80;;;;;;5011735;28;20102;-53
2024/01/31 05:51:11;;;;;;;4.18;2.20;;;20.60;55.10;;;;;;5024809;28;20018;-47
2024/01/31 05:53:37;;;;;;;4.35;2.50;;;20.60;54.90;;;;;;5028892;28;20024;-52
2024/01/31 05:56:03;;;;;;;2.45;1.80;;;20.60;54.90;;;;;;4984337;28;20038;-51
2024/01/31 05:58:29;;;;;;;3.88;2.10;;;20.60;55.10;;;;;;5047207;28;20080;-50
2024/01/31 06:00:56;;;;;;;5.30;2.20;;;20.60;55.30;;;;;;4969185;28;20425;-53
2024/01/31 06:03:23;;;;;;;3.55;2.30;;;20.70;55.10;;;;;;4951909;28;20050;-48
2024/01/31 06:05:49;;;;;;;6.07;2.40;;;20.60;55.20;;;;;;5011496;28;20085;-53
2024/01/31 06:08:15;;;;;;;4.70;2.28;;;20.60;55.50;;;;;;5023810;28;20021;-48
2024/01/31 06:10:41;;;;;;;5.13;2.25;;;20.60;55.20;;;;;;5003888;28;20083;-55
2024/01/31 06:13:07;;;;;;;4.85;2.33;;;20.60;55.00;;;;;;5021709;28;20027;-52
2024/01/31 06:15:33;;;;;;;4.38;2.22;;;20.60;55.60;;;;;;5027155;28;20043;-53
2024/01/31 06:17:58;;;;;;;4.93;2.20;;;20.60;55.10;;;;;;5010647;28;20026;-51
2024/01/31 06:20:24;;;;;;;4.13;2.05;;;20.60;55.40;;;;;;5023185;28;20034;-50
2024/01/31 06:22:50;;;;;;;2.60;1.83;;;20.60;55.30;;;;;;5035137;28;20025;-48
2024/01/31 06:25:16;;;;;;;5.80;2.28;;;20.60;55.30;;;;;;5010366;28;20026;-48
2024/01/31 06:27:42;;;;;;;5.25;2.40;;;20.60;55.60;;;;;;5005882;28;20028;-47
2024/01/31 06:30:08;;;;;;;4.72;1.80;;;20.60;55.30;;;;;;5030035;28;20377;-47
2024/01/31 06:32:37;;;;;;;5.15;2.70;;;20.60;55.80;;;;;;4968118;28;20486;-50
2024/01/31 06:35:03;;;;;;;5.93;2.23;;;20.60;55.50;;;;;;4969368;28;20034;-50
2024/01/31 06:37:29;;;;;;;3.38;2.05;;;20.60;56.10;;;;;;5008420;28;20107;-50
2024/01/31 06:39:55;;;;;;;3.90;1.77;;;20.50;55.50;;;;;;5015328;28;20523;-48
2024/01/31 06:42:21;;;;;;;4.25;2.25;;;20.60;55.70;;;;;;4969845;28;20576;-47
2024/01/31 06:44:47;;;;;;;4.25;2.17;;;20.60;55.20;;;;;;4979679;28;20520;-50
2024/01/31 06:47:13;;;;;;;3.67;2.20;;;20.60;55.40;;;;;;5014497;28;20011;-50
2024/01/31 06:49:38;;;;;;;4.50;2.33;;;20.60;55.70;;;;;;5008244;28;20110;-48
2024/01/31 06:52:10;;;;;;;4.55;2.38;;;20.60;55.10;;;;;;4978960;28;20497;-50
2024/01/31 06:54:36;;;;;;;9.77;2.25;;;20.60;54.80;;;;;;5022705;28;20062;-51
2024/01/31 06:57:01;;;;;;;5.07;2.55;;;20.60;54.60;;;;;;5024376;28;20025;-48
2024/01/31 06:59:27;;;;;;;14.55;2.92;;;20.60;54.30;;;;;;5004415;28;20031;-48
2024/01/31 07:01:53;;;;;;;5.25;2.55;;;20.70;55.30;;;;;;5012112;28;20448;-50
2024/01/31 07:04:20;;;;;;;12.38;2.58;;;20.70;55.10;;;;;;4972361;28;20084;-46
2024/01/31 07:06:45;;;;;;;7.55;2.50;;;20.70;55.30;;;;;;5002513;28;20033;-48
2024/01/31 07:09:11;;;;;;;10.43;2.50;;;20.70;55.10;;;;;;4988098;28;20027;-50
2024/01/31 07:11:37;;;;;;;7.65;2.25;;;20.90;55.70;;;;;;5024120;28;20034;-51
2024/01/31 07:14:03;;;;;;;4.18;2.13;;;20.90;56.10;;;;;;5018089;28;20105;-50
2024/01/31 07:16:28;;;;;;;5.95;2.40;;;20.90;57.10;;;;;;4985197;28;20027;-48
2024/01/31 07:18:55;;;;;;;6.32;2.53;;;21.00;57.50;;;;;;4972436;28;20133;-53
2024/01/31 07:21:25;;;;;;;8.75;2.88;;;21.00;58.00;;;;;;4971861;28;20027;-53
2024/01/31 07:23:52;;;;;;;7.18;2.58;;;21.00;57.30;;;;;;4967724;28;20023;-56
2024/01/31 07:26:26;;;;;;;9.60;3.00;;;21.00;57.10;;;;;;4967759;28;20022;-53
2024/01/31 07:28:52;;;;;;;6.60;2.42;;;21.00;57.20;;;;;;4972646;28;20019;-51
2024/01/31 07:31:18;;;;;;;7.13;2.42;;;21.00;57.00;;;;;;4972658;28;20553;-53
2024/01/31 07:33:44;;;;;;;13.25;2.58;;;20.90;57.00;;;;;;4971423;28;20062;-54
2024/01/31 07:36:10;;;;;;;6.25;2.38;;;20.70;54.60;;;;;;4971843;28;20030;-53
2024/01/31 07:38:36;;;;;;;14.88;2.20;;;20.50;50.90;;;;;;4970232;28;20707;-52
2024/01/31 07:41:02;;;;;;;11.68;3.97;;;20.40;49.80;;;;;;4971485;28;20030;-55
2024/01/31 07:43:28;;;;;;;8.63;2.80;;;20.40;50.10;;;;;;4989435;22;20011;-64
2024/01/31 07:45:53;;;;;;;7.93;2.75;;;20.40;49.80;;;;;;4992140;28;20117;-63
2024/01/31 07:48:19;;;;;;;9.95;2.42;;;20.50;51.30;;;;;;4973714;28;20030;-67
2024/01/31 07:50:45;;;;;;;6.32;2.30;;;20.50;51.70;;;;;;4984271;28;20049;-67
2024/01/31 07:53:11;;;;;;;13.15;2.78;;;20.50;52.10;;;;;;4990147;28;20045;-67
2024/01/31 07:55:37;;;;;;;11.23;2.22;;;20.50;51.80;;;;;;4986396;28;20035;-65
2024/01/31 07:58:03;;;;;;;17.70;2.97;;;20.50;52.40;;;;;;4994069;28;20029;-66
2024/01/31 08:00:29;;;;;;;13.13;2.90;;;20.60;52.40;;;;;;4983137;28;20075;-65
2024/01/31 08:02:55;;;;;;;17.77;2.95;;;20.60;52.60;;;;;;4971938;28;20501;-66
2024/01/31 08:05:20;;;;;;;9.48;2.30;;;20.70;52.70;;;;;;4991658;28;20025;-66
2024/01/31 08:07:46;;;;;;;15.57;2.28;;;20.70;52.40;;;;;;4997620;28;20479;-67
2024/01/31 08:10:13;;;;;;;13.73;2.75;;;20.70;52.80;;;;;;5073003;28;20052;-68
2024/01/31 08:12:43;;;;;;;29.35;3.08;;;20.60;52.80;;;;;;5072779;28;20032;-68
2024/01/31 08:15:09;;;;;;;23.02;3.47;;;20.70;54.00;;;;;;5056365;28;20095;-67
2024/01/31 08:17:34;;;;;;;13.65;3.20;;;20.70;53.40;;;;;;4990451;28;20144;-67
2024/01/31 08:20:00;;;;;;;10.43;2.67;;;20.70;53.80;;;;;;4994309;28;20026;-67
2024/01/31 08:22:26;;;;;;;9.13;2.50;;;20.70;53.40;;;;;;4991956;28;20037;-67
2024/01/31 08:24:52;;;;;;;13.45;3.17;;;20.70;54.00;;;;;;4995442;28;20022;-67
2024/01/31 08:27:18;;;;;;;10.00;2.70;;;20.70;53.70;;;;;;5032283;28;20024;-67
2024/01/31 08:29:45;;;;;;;8.15;2.58;;;20.70;53.70;;;;;;5072761;28;20024;-67
2024/01/31 08:32:10;;;;;;;8.32;2.88;;;20.70;53.60;;;;;;5030907;28;20505;-64
2024/01/31 08:34:37;;;;;;;11.73;3.35;;;20.70;54.20;;;;;;4996204;28;20096;-65
2024/01/31 08:37:03;;;;;;;16.10;3.58;;;20.70;54.80;;;;;;4992238;28;20031;-66
2024/01/31 23:57:04;;;;;;;8.95;3.13;;;20.20;49.50;;;;;;5191860;27;20518;-56
2024/01/31 23:59:30;;;;;;;14.82;3.58;;;20.30;51.60;;;;;;5171568;27;20022;-50
